sensor_id;sensor_type;location;lat;lon;timestamp;P1;durP1;ratioP1;P2;durP2;ratioP2
61756;SDS011;57225;61.460;24.060;2024-03-23T00:54:07;2.80;;;1.75;;
61756;SDS011;57225;61.460;24.060;2024-03-23T00:56:51;4.50;;;2.20;;
61756;SDS011;57225;61.460;24.060;2024-03-23T00:59:36;2.38;;;1.50;;
61756;SDS011;57225;61.460;24.060;2024-03-23T01:02:21;5.32;;;2.20;;
61756;SDS011;57225;61.460;24.060;2024-03-23T01:05:06;4.00;;;2.15;;
61756;SDS011;57225;61.460;24.060;2024-03-23T01:07:50;3.55;;;1.90;;
61756;SDS011;57225;61.460;24.060;2024-03-23T01:10:35;18.25;;;2.80;;
61756;SDS011;57225;61.460;24.060;2024-03-23T01:13:19;5.22;;;2.45;;
61756;SDS011;57225;61.460;24.060;2024-03-23T01:16:06;5.75;;;2.65;;
61756;SDS011;57225;61.460;24.060;2024-03-23T01:18:50;5.40;;;2.67;;
61756;SDS011;57225;61.460;24.060;2024-03-23T01:21:35;56.88;;;3.53;;
61756;SDS011;57225;61.460;24.060;2024-03-23T01:24:19;5.60;;;2.85;;
61756;SDS011;57225;61.460;24.060;2024-03-23T01:27:09;46.45;;;4.05;;
61756;SDS011;57225;61.460;24.060;2024-03-23T01:29:54;5.75;;;2.90;;
61756;SDS011;57225;61.460;24.060;2024-03-23T01:32:38;7.85;;;2.80;;
61756;SDS011;57225;61.460;24.060;2024-03-23T01:35:23;22.45;;;3.70;;
61756;SDS011;57225;61.460;24.060;2024-03-23T01:38:07;19.77;;;3.63;;
61756;SDS011;57225;61.460;24.060;2024-03-23T01:40:58;27.40;;;4.05;;
61756;SDS011;57225;61.460;24.060;2024-03-23T01:43:43;9.23;;;3.25;;
61756;SDS011;57225;61.460;24.060;2024-03-23T01:46:27;19.90;;;3.08;;
61756;SDS011;57225;61.460;24.060;2024-03-23T01:49:12;15.18;;;3.00;;
61756;SDS011;57225;61.460;24.060;2024-03-23T01:51:57;19.88;;;3.97;;
61756;SDS011;57225;61.460;24.060;2024-03-23T01:54:41;7.50;;;3.30;;
61756;SDS011;57225;61.460;24.060;2024-03-23T01:57:26;13.70;;;4.40;;
61756;SDS011;57225;61.460;24.060;2024-03-23T02:22:24;10.55;;;4.25;;
61756;SDS011;57225;61.460;24.060;2024-03-23T02:25:09;12.15;;;4.78;;
61756;SDS011;57225;61.460;24.060;2024-03-23T02:27:54;11.15;;;4.72;;
61756;SDS011;57225;61.460;24.060;2024-03-23T02:30:39;14.05;;;5.03;;
61756;SDS011;57225;61.460;24.060;2024-03-23T02:33:23;12.32;;;5.32;;
61756;SDS011;57225;61.460;24.060;2024-03-23T02:36:07;9.25;;;4.80;;
61756;SDS011;57225;61.460;24.060;2024-03-23T02:38:52;9.35;;;4.53;;
61756;SDS011;57225;61.460;24.060;2024-03-23T02:41:36;9.18;;;4.65;;
61756;SDS011;57225;61.460;24.060;2024-03-23T02:44:21;9.40;;;4.03;;
61756;SDS011;57225;61.460;24.060;2024-03-23T02:47:05;8.00;;;4.00;;
61756;SDS011;57225;61.460;24.060;2024-03-23T02:49:50;8.15;;;3.72;;
61756;SDS011;57225;61.460;24.060;2024-03-23T02:52:34;10.45;;;4.28;;
61756;SDS011;57225;61.460;24.060;2024-03-23T02:55:20;5.05;;;3.25;;
61756;SDS011;57225;61.460;24.060;2024-03-23T02:58:04;7.43;;;3.40;;
61756;SDS011;57225;61.460;24.060;2024-03-23T03:00:49;5.80;;;3.58;;
61756;SDS011;57225;61.460;24.060;2024-03-23T03:03:33;5.57;;;3.50;;
61756;SDS011;57225;61.460;24.060;2024-03-23T03:06:24;5.70;;;3.03;;
61756;SDS011;57225;61.460;24.060;2024-03-23T03:09:09;4.55;;;3.20;;
61756;SDS011;57225;61.460;24.060;2024-03-23T03:11:54;4.90;;;3.10;;
61756;SDS011;57225;61.460;24.060;2024-03-23T03:14:38;5.60;;;3.70;;
61756;SDS011;57225;61.460;24.060;2024-03-23T03:17:23;4.78;;;3.15;;
61756;SDS011;57225;61.460;24.060;2024-03-23T03:20:07;4.60;;;3.03;;
61756;SDS011;57225;61.460;24.060;2024-03-23T03:22:57;5.35;;;3.38;;
61756;SDS011;57225;61.460;24.060;2024-03-23T03:25:41;5.05;;;3.13;;
61756;SDS011;57225;61.460;24.060;2024-03-23T03:28:25;5.00;;;3.38;;
61756;SDS011;57225;61.460;24.060;2024-03-23T03:31:18;6.53;;;3.95;;
61756;SDS011;57225;61.460;24.060;2024-03-23T03:34:02;6.07;;;3.92;;
61756;SDS011;57225;61.460;24.060;2024-03-23T03:36:47;5.82;;;3.72;;
61756;SDS011;57225;61.460;24.060;2024-03-23T03:39:31;5.20;;;3.42;;
61756;SDS011;57225;61.460;24.060;2024-03-23T03:42:16;6.47;;;3.95;;
61756;SDS011;57225;61.460;24.060;2024-03-23T03:45:00;7.30;;;3.72;;
61756;SDS011;57225;61.460;24.060;2024-03-23T03:47:44;6.43;;;3.75;;
61756;SDS011;57225;61.460;24.060;2024-03-23T03:50:29;5.65;;;3.90;;
61756;SDS011;57225;61.460;24.060;2024-03-23T03:53:13;7.05;;;4.00;;
61756;SDS011;57225;61.460;24.060;2024-03-23T03:56:01;6.35;;;4.03;;
61756;SDS011;57225;61.460;24.060;2024-03-23T03:58:46;5.68;;;3.75;;
61756;SDS011;57225;61.460;24.060;2024-03-23T04:01:30;5.97;;;3.88;;
61756;SDS011;57225;61.460;24.060;2024-03-23T04:04:15;4.65;;;3.22;;
61756;SDS011;57225;61.460;24.060;2024-03-23T04:07:00;5.53;;;3.40;;
61756;SDS011;57225;61.460;24.060;2024-03-23T04:09:45;5.40;;;3.60;;
61756;SDS011;57225;61.460;24.060;2024-03-23T04:12:30;4.82;;;3.45;;
61756;SDS011;57225;61.460;24.060;2024-03-23T04:15:16;6.00;;;3.80;;
61756;SDS011;57225;61.460;24.060;2024-03-23T04:18:00;5.00;;;3.13;;
61756;SDS011;57225;61.460;24.060;2024-03-23T04:20:44;4.40;;;3.10;;
61756;SDS011;57225;61.460;24.060;2024-03-23T04:23:29;5.13;;;3.50;;
61756;SDS011;57225;61.460;24.060;2024-03-23T04:26:14;6.00;;;3.50;;
61756;SDS011;57225;61.460;24.060;2024-03-23T04:28:59;5.63;;;3.80;;
61756;SDS011;57225;61.460;24.060;2024-03-23T04:31:44;6.57;;;3.40;;
61756;SDS011;57225;61.460;24.060;2024-03-23T04:34:29;4.75;;;3.13;;
61756;SDS011;57225;61.460;24.060;2024-03-23T04:37:13;4.63;;;2.97;;
61756;SDS011;57225;61.460;24.060;2024-03-23T04:39:58;5.50;;;3.55;;
61756;SDS011;57225;61.460;24.060;2024-03-23T04:42:44;4.13;;;3.05;;
61756;SDS011;57225;61.460;24.060;2024-03-23T04:45:28;3.63;;;2.85;;
61756;SDS011;57225;61.460;24.060;2024-03-23T04:48:13;3.22;;;2.42;;
61756;SDS011;57225;61.460;24.060;2024-03-23T04:50:57;3.30;;;2.58;;
61756;SDS011;57225;61.460;24.060;2024-03-23T04:53:42;4.00;;;2.60;;
61756;SDS011;57225;61.460;24.060;2024-03-23T04:56:26;3.60;;;2.50;;
61756;SDS011;57225;61.460;24.060;2024-03-23T04:59:11;3.33;;;2.35;;
61756;SDS011;57225;61.460;24.060;2024-03-23T05:01:55;2.65;;;2.00;;
61756;SDS011;57225;61.460;24.060;2024-03-23T05:04:40;2.33;;;1.80;;
61756;SDS011;57225;61.460;24.060;2024-03-23T05:07:24;2.78;;;1.95;;
61756;SDS011;57225;61.460;24.060;2024-03-23T05:10:09;2.45;;;1.60;;
61756;SDS011;57225;61.460;24.060;2024-03-23T05:12:54;1.55;;;1.45;;
61756;SDS011;57225;61.460;24.060;2024-03-23T05:15:39;1.92;;;1.30;;
61756;SDS011;57225;61.460;24.060;2024-03-23T05:18:23;1.45;;;1.30;;
61756;SDS011;57225;61.460;24.060;2024-03-23T05:21:10;3.45;;;1.42;;
61756;SDS011;57225;61.460;24.060;2024-03-23T05:23:54;2.05;;;1.50;;
61756;SDS011;57225;61.460;24.060;2024-03-23T05:26:39;1.88;;;1.20;;
61756;SDS011;57225;61.460;24.060;2024-03-23T05:29:23;1.17;;;1.05;;
61756;SDS011;57225;61.460;24.060;2024-03-23T05:32:08;1.20;;;1.10;;
61756;SDS011;57225;61.460;24.060;2024-03-23T05:34:53;1.42;;;1.00;;
61756;SDS011;57225;61.460;24.060;2024-03-23T05:37:40;1.13;;;1.02;;
61756;SDS011;57225;61.460;24.060;2024-03-23T05:40:28;1.85;;;1.30;;
61756;SDS011;57225;61.460;24.060;2024-03-23T05:43:12;1.17;;;1.00;;
61756;SDS011;57225;61.460;24.060;2024-03-23T05:45:57;3.15;;;1.10;;
61756;SDS011;57225;61.460;24.060;2024-03-23T05:48:42;1.55;;;1.30;;
61756;SDS011;57225;61.460;24.060;2024-03-23T05:51:27;1.40;;;0.95;;
61756;SDS011;57225;61.460;24.060;2024-03-23T05:54:11;2.38;;;1.33;;
61756;SDS011;57225;61.460;24.060;2024-03-23T05:56:56;1.10;;;1.00;;
61756;SDS011;57225;61.460;24.060;2024-03-23T05:59:40;1.52;;;1.42;;
61756;SDS011;57225;61.460;24.060;2024-03-23T06:02:25;2.70;;;1.50;;
61756;SDS011;57225;61.460;24.060;2024-03-23T06:05:10;1.73;;;1.20;;
61756;SDS011;57225;61.460;24.060;2024-03-23T06:07:56;2.60;;;1.67;;
61756;SDS011;57225;61.460;24.060;2024-03-23T06:10:40;2.45;;;1.30;;
61756;SDS011;57225;61.460;24.060;2024-03-23T06:13:25;1.63;;;1.50;;
61756;SDS011;57225;61.460;24.060;2024-03-23T06:16:13;1.30;;;1.20;;
61756;SDS011;57225;61.460;24.060;2024-03-23T06:18:58;1.50;;;1.40;;
61756;SDS011;57225;61.460;24.060;2024-03-23T06:21:43;1.40;;;1.17;;
61756;SDS011;57225;61.460;24.060;2024-03-23T06:24:28;1.50;;;1.10;;
61756;SDS011;57225;61.460;24.060;2024-03-23T06:27:12;1.08;;;0.98;;
61756;SDS011;57225;61.460;24.060;2024-03-23T06:29:57;1.90;;;1.30;;
61756;SDS011;57225;61.460;24.060;2024-03-23T06:32:42;1.52;;;1.20;;
61756;SDS011;57225;61.460;24.060;2024-03-23T06:35:26;1.33;;;1.10;;
61756;SDS011;57225;61.460;24.060;2024-03-23T06:38:10;1.65;;;1.00;;
61756;SDS011;57225;61.460;24.060;2024-03-23T06:40:55;1.27;;;0.98;;
61756;SDS011;57225;61.460;24.060;2024-03-23T06:43:39;1.35;;;1.20;;
61756;SDS011;57225;61.460;24.060;2024-03-23T06:46:24;1.58;;;1.23;;
61756;SDS011;57225;61.460;24.060;2024-03-23T06:49:09;2.47;;;1.98;;
61756;SDS011;57225;61.460;24.060;2024-03-23T06:51:54;2.45;;;1.85;;
61756;SDS011;57225;61.460;24.060;2024-03-23T06:54:39;6.45;;;5.55;;
61756;SDS011;57225;61.460;24.060;2024-03-23T06:57:24;2.08;;;1.88;;
61756;SDS011;57225;61.460;24.060;2024-03-23T07:00:08;1.90;;;1.70;;
61756;SDS011;57225;61.460;24.060;2024-03-23T07:02:54;1.77;;;1.30;;
61756;SDS011;57225;61.460;24.060;2024-03-23T07:05:38;1.70;;;1.50;;
61756;SDS011;57225;61.460;24.060;2024-03-23T07:08:23;2.72;;;1.65;;
61756;SDS011;57225;61.460;24.060;2024-03-23T07:11:07;3.08;;;1.58;;
61756;SDS011;57225;61.460;24.060;2024-03-23T07:13:52;2.17;;;1.40;;
61756;SDS011;57225;61.460;24.060;2024-03-23T07:16:40;2.08;;;1.40;;
61756;SDS011;57225;61.460;24.060;2024-03-23T07:19:25;3.60;;;1.40;;
61756;SDS011;57225;61.460;24.060;2024-03-23T07:22:09;2.05;;;1.50;;
61756;SDS011;57225;61.460;24.060;2024-03-23T07:24:54;2.20;;;1.60;;
61756;SDS011;57225;61.460;24.060;2024-03-23T07:27:38;2.75;;;1.65;;
61756;SDS011;57225;61.460;24.060;2024-03-23T07:30:22;1.95;;;1.50;;
61756;SDS011;57225;61.460;24.060;2024-03-23T07:33:07;2.00;;;1.40;;
61756;SDS011;57225;61.460;24.060;2024-03-23T07:35:52;5.43;;;1.30;;
61756;SDS011;57225;61.460;24.060;2024-03-23T07:38:36;1.50;;;1.25;;
61756;SDS011;57225;61.460;24.060;2024-03-23T07:41:21;4.57;;;1.67;;
61756;SDS011;57225;61.460;24.060;2024-03-23T07:44:06;2.40;;;1.70;;
61756;SDS011;57225;61.460;24.060;2024-03-23T07:46:50;3.88;;;1.48;;
61756;SDS011;57225;61.460;24.060;2024-03-23T07:49:35;3.13;;;1.42;;
61756;SDS011;57225;61.460;24.060;2024-03-23T07:52:19;2.97;;;1.70;;
61756;SDS011;57225;61.460;24.060;2024-03-23T07:55:05;2.50;;;1.60;;
61756;SDS011;57225;61.460;24.060;2024-03-23T07:57:50;2.17;;;1.52;;
61756;SDS011;57225;61.460;24.060;2024-03-23T08:00:35;2.90;;;2.05;;
61756;SDS011;57225;61.460;24.060;2024-03-23T08:03:19;3.92;;;1.67;;
61756;SDS011;57225;61.460;24.060;2024-03-23T08:06:10;2.47;;;1.60;;
61756;SDS011;57225;61.460;24.060;2024-03-23T08:08:58;3.47;;;1.80;;
61756;SDS011;57225;61.460;24.060;2024-03-23T08:11:46;2.63;;;1.60;;
61756;SDS011;57225;61.460;24.060;2024-03-23T08:14:30;2.78;;;1.60;;
61756;SDS011;57225;61.460;24.060;2024-03-23T08:17:15;3.25;;;1.60;;
61756;SDS011;57225;61.460;24.060;2024-03-23T08:19:59;3.20;;;1.88;;
61756;SDS011;57225;61.460;24.060;2024-03-23T08:22:44;5.30;;;2.03;;
61756;SDS011;57225;61.460;24.060;2024-03-23T08:25:30;3.75;;;2.10;;
61756;SDS011;57225;61.460;24.060;2024-03-23T08:28:15;6.13;;;1.90;;
61756;SDS011;57225;61.460;24.060;2024-03-23T08:31:12;4.82;;;2.08;;
61756;SDS011;57225;61.460;24.060;2024-03-23T08:33:58;3.00;;;1.90;;
61756;SDS011;57225;61.460;24.060;2024-03-23T08:36:42;3.38;;;1.80;;
61756;SDS011;57225;61.460;24.060;2024-03-23T08:39:27;4.60;;;2.15;;
61756;SDS011;57225;61.460;24.060;2024-03-23T08:42:11;5.53;;;2.20;;
61756;SDS011;57225;61.460;24.060;2024-03-23T08:44:56;4.90;;;1.83;;
61756;SDS011;57225;61.460;24.060;2024-03-23T08:47:40;2.22;;;1.80;;
61756;SDS011;57225;61.460;24.060;2024-03-23T08:50:25;5.07;;;1.70;;
61756;SDS011;57225;61.460;24.060;2024-03-23T08:53:10;3.90;;;2.00;;
61756;SDS011;57225;61.460;24.060;2024-03-23T08:55:54;4.55;;;2.00;;
61756;SDS011;57225;61.460;24.060;2024-03-23T08:58:39;2.80;;;1.85;;
61756;SDS011;57225;61.460;24.060;2024-03-23T09:01:23;4.53;;;1.80;;
61756;SDS011;57225;61.460;24.060;2024-03-23T09:04:08;4.07;;;1.92;;
61756;SDS011;57225;61.460;24.060;2024-03-23T09:06:52;2.63;;;1.33;;
61756;SDS011;57225;61.460;24.060;2024-03-23T09:09:40;3.53;;;1.77;;
61756;SDS011;57225;61.460;24.060;2024-03-23T09:12:24;3.58;;;1.70;;
61756;SDS011;57225;61.460;24.060;2024-03-23T09:15:09;5.20;;;1.38;;
61756;SDS011;57225;61.460;24.060;2024-03-23T09:17:53;3.60;;;1.35;;
61756;SDS011;57225;61.460;24.060;2024-03-23T09:20:39;1.58;;;1.00;;
61756;SDS011;57225;61.460;24.060;2024-03-23T09:23:24;2.60;;;1.33;;
61756;SDS011;57225;61.460;24.060;2024-03-23T09:26:08;3.50;;;1.13;;
61756;SDS011;57225;61.460;24.060;2024-03-23T09:28:53;1.98;;;1.20;;
61756;SDS011;57225;61.460;24.060;2024-03-23T09:31:37;2.75;;;1.10;;
61756;SDS011;57225;61.460;24.060;2024-03-23T09:34:22;0.90;;;0.70;;
61756;SDS011;57225;61.460;24.060;2024-03-23T09:37:07;2.25;;;1.02;;
61756;SDS011;57225;61.460;24.060;2024-03-23T09:39:51;0.70;;;0.70;;
61756;SDS011;57225;61.460;24.060;2024-03-23T09:42:36;2.10;;;0.70;;
61756;SDS011;57225;61.460;24.060;2024-03-23T09:45:28;1.20;;;0.70;;
61756;SDS011;57225;61.460;24.060;2024-03-23T09:48:13;2.35;;;0.77;;
61756;SDS011;57225;61.460;24.060;2024-03-23T09:50:57;2.05;;;0.40;;
61756;SDS011;57225;61.460;24.060;2024-03-23T09:53:42;0.55;;;0.50;;
61756;SDS011;57225;61.460;24.060;2024-03-23T09:56:27;1.15;;;0.50;;
61756;SDS011;57225;61.460;24.060;2024-03-23T09:59:11;0.55;;;0.32;;
61756;SDS011;57225;61.460;24.060;2024-03-23T10:01:56;0.43;;;0.35;;
61756;SDS011;57225;61.460;24.060;2024-03-23T10:04:41;0.65;;;0.20;;
61756;SDS011;57225;61.460;24.060;2024-03-23T10:07:25;1.17;;;0.50;;
61756;SDS011;57225;61.460;24.060;2024-03-23T10:10:12;0.98;;;0.40;;
61756;SDS011;57225;61.460;24.060;2024-03-23T10:12:56;1.08;;;0.50;;
61756;SDS011;57225;61.460;24.060;2024-03-23T10:15:41;0.93;;;0.32;;
61756;SDS011;57225;61.460;24.060;2024-03-23T10:18:25;0.40;;;0.28;;
61756;SDS011;57225;61.460;24.060;2024-03-23T10:21:14;0.98;;;0.40;;
61756;SDS011;57225;61.460;24.060;2024-03-23T10:23:58;0.50;;;0.30;;
61756;SDS011;57225;61.460;24.060;2024-03-23T10:30:12;1.65;;;0.30;;
61756;SDS011;57225;61.460;24.060;2024-03-23T10:33:07;0.38;;;0.30;;
61756;SDS011;57225;61.460;24.060;2024-03-23T10:35:52;0.80;;;0.40;;
61756;SDS011;57225;61.460;24.060;2024-03-23T10:38:39;0.17;;;0.17;;
61756;SDS011;57225;61.460;24.060;2024-03-23T10:41:28;0.93;;;0.43;;
61756;SDS011;57225;61.460;24.060;2024-03-23T10:44:16;1.02;;;0.40;;
61756;SDS011;57225;61.460;24.060;2024-03-23T10:47:03;3.97;;;0.70;;
61756;SDS011;57225;61.460;24.060;2024-03-23T10:49:49;1.00;;;0.80;;
61756;SDS011;57225;61.460;24.060;2024-03-23T10:52:33;1.25;;;0.60;;
61756;SDS011;57225;61.460;24.060;2024-03-23T10:55:18;0.52;;;0.43;;
61756;SDS011;57225;61.460;24.060;2024-03-23T10:58:04;3.28;;;0.75;;
61756;SDS011;57225;61.460;24.060;2024-03-23T11:00:48;0.95;;;0.45;;
61756;SDS011;57225;61.460;24.060;2024-03-23T11:03:36;0.68;;;0.40;;
61756;SDS011;57225;61.460;24.060;2024-03-23T11:15:13;0.50;;;0.30;;
61756;SDS011;57225;61.460;24.060;2024-03-23T11:18:07;1.55;;;0.35;;
61756;SDS011;57225;61.460;24.060;2024-03-23T11:20:52;0.38;;;0.20;;
61756;SDS011;57225;61.460;24.060;2024-03-23T11:23:37;0.38;;;0.10;;
61756;SDS011;57225;61.460;24.060;2024-03-23T11:26:21;0.10;;;0.10;;
61756;SDS011;57225;61.460;24.060;2024-03-23T11:29:09;0.22;;;0.20;;
61756;SDS011;57225;61.460;24.060;2024-03-23T11:31:55;0.38;;;0.10;;
61756;SDS011;57225;61.460;24.060;2024-03-23T11:34:39;0.45;;;0.20;;
61756;SDS011;57225;61.460;24.060;2024-03-23T11:37:24;0.17;;;0.15;;
61756;SDS011;57225;61.460;24.060;2024-03-23T11:40:18;0.95;;;0.30;;
61756;SDS011;57225;61.460;24.060;2024-03-23T11:43:04;0.85;;;0.30;;
61756;SDS011;57225;61.460;24.060;2024-03-23T11:45:50;1.42;;;0.30;;
61756;SDS011;57225;61.460;24.060;2024-03-23T11:48:36;1.73;;;0.30;;
61756;SDS011;57225;61.460;24.060;2024-03-23T11:51:21;0.68;;;0.50;;
61756;SDS011;57225;61.460;24.060;2024-03-23T11:54:08;0.82;;;0.43;;
61756;SDS011;57225;61.460;24.060;2024-03-23T11:56:56;1.70;;;0.77;;
61756;SDS011;57225;61.460;24.060;2024-03-23T11:59:40;1.20;;;0.80;;
61756;SDS011;57225;61.460;24.060;2024-03-23T12:02:25;3.80;;;0.60;;
61756;SDS011;57225;61.460;24.060;2024-03-23T12:05:16;1.80;;;0.40;;
61756;SDS011;57225;61.460;24.060;2024-03-23T12:08:20;0.60;;;0.50;;
61756;SDS011;57225;61.460;24.060;2024-03-23T12:11:15;1.63;;;0.50;;
61756;SDS011;57225;61.460;24.060;2024-03-23T12:14:00;1.33;;;0.88;;
61756;SDS011;57225;61.460;24.060;2024-03-23T12:16:45;1.83;;;0.63;;
61756;SDS011;57225;61.460;24.060;2024-03-23T12:19:30;0.80;;;0.40;;
61756;SDS011;57225;61.460;24.060;2024-03-23T12:22:14;1.38;;;0.40;;
61756;SDS011;57225;61.460;24.060;2024-03-23T12:24:59;2.35;;;0.63;;
61756;SDS011;57225;61.460;24.060;2024-03-23T12:27:43;2.40;;;0.57;;
61756;SDS011;57225;61.460;24.060;2024-03-23T12:30:27;2.55;;;0.50;;
61756;SDS011;57225;61.460;24.060;2024-03-23T12:33:12;5.05;;;0.82;;
61756;SDS011;57225;61.460;24.060;2024-03-23T12:35:56;1.27;;;0.55;;
61756;SDS011;57225;61.460;24.060;2024-03-23T12:38:41;3.10;;;0.80;;
61756;SDS011;57225;61.460;24.060;2024-03-23T12:41:27;1.88;;;0.57;;
61756;SDS011;57225;61.460;24.060;2024-03-23T12:44:12;1.33;;;0.60;;
61756;SDS011;57225;61.460;24.060;2024-03-23T12:46:57;3.05;;;0.70;;
61756;SDS011;57225;61.460;24.060;2024-03-23T12:49:42;8.88;;;0.90;;
61756;SDS011;57225;61.460;24.060;2024-03-23T12:52:27;2.50;;;0.90;;
61756;SDS011;57225;61.460;24.060;2024-03-23T12:55:12;1.77;;;0.82;;
61756;SDS011;57225;61.460;24.060;2024-03-23T12:57:57;2.35;;;0.60;;
61756;SDS011;57225;61.460;24.060;2024-03-23T13:00:41;1.00;;;0.60;;
61756;SDS011;57225;61.460;24.060;2024-03-23T13:03:25;5.95;;;0.80;;
61756;SDS011;57225;61.460;24.060;2024-03-23T13:06:10;2.53;;;0.85;;
61756;SDS011;57225;61.460;24.060;2024-03-23T13:08:54;1.92;;;0.90;;
61756;SDS011;57225;61.460;24.060;2024-03-23T13:11:39;2.78;;;0.80;;
61756;SDS011;57225;61.460;24.060;2024-03-23T13:14:24;3.25;;;0.80;;
61756;SDS011;57225;61.460;24.060;2024-03-23T13:17:08;4.63;;;1.25;;
61756;SDS011;57225;61.460;24.060;2024-03-23T13:19:54;1.85;;;0.82;;
61756;SDS011;57225;61.460;24.060;2024-03-23T13:22:39;3.95;;;0.88;;
61756;SDS011;57225;61.460;24.060;2024-03-23T13:25:24;2.70;;;0.70;;
61756;SDS011;57225;61.460;24.060;2024-03-23T13:28:08;4.15;;;0.73;;
61756;SDS011;57225;61.460;24.060;2024-03-23T13:30:54;3.03;;;1.02;;
61756;SDS011;57225;61.460;24.060;2024-03-23T13:33:39;5.05;;;0.80;;
61756;SDS011;57225;61.460;24.060;2024-03-23T13:36:25;2.55;;;0.80;;
61756;SDS011;57225;61.460;24.060;2024-03-23T13:39:10;1.65;;;0.75;;
61756;SDS011;57225;61.460;24.060;2024-03-23T13:41:55;2.88;;;0.70;;
61756;SDS011;57225;61.460;24.060;2024-03-23T13:44:39;1.60;;;0.60;;
61756;SDS011;57225;61.460;24.060;2024-03-23T13:47:24;3.70;;;0.70;;
61756;SDS011;57225;61.460;24.060;2024-03-23T13:50:09;2.67;;;0.60;;
61756;SDS011;57225;61.460;24.060;2024-03-23T13:52:54;4.00;;;0.75;;
61756;SDS011;57225;61.460;24.060;2024-03-23T13:55:45;0.75;;;0.55;;
61756;SDS011;57225;61.460;24.060;2024-03-23T13:58:32;4.50;;;0.70;;
61756;SDS011;57225;61.460;24.060;2024-03-23T14:01:17;2.28;;;0.68;;
61756;SDS011;57225;61.460;24.060;2024-03-23T14:04:01;3.03;;;0.77;;
61756;SDS011;57225;61.460;24.060;2024-03-23T14:06:46;3.47;;;0.70;;
61756;SDS011;57225;61.460;24.060;2024-03-23T14:09:30;1.83;;;0.70;;
61756;SDS011;57225;61.460;24.060;2024-03-23T14:12:16;2.78;;;0.77;;
61756;SDS011;57225;61.460;24.060;2024-03-23T14:15:01;4.80;;;0.80;;
61756;SDS011;57225;61.460;24.060;2024-03-23T14:17:46;1.92;;;0.75;;
61756;SDS011;57225;61.460;24.060;2024-03-23T14:20:31;3.00;;;0.85;;
61756;SDS011;57225;61.460;24.060;2024-03-23T14:23:15;1.73;;;0.80;;
61756;SDS011;57225;61.460;24.060;2024-03-23T14:26:00;3.22;;;1.40;;
61756;SDS011;57225;61.460;24.060;2024-03-23T14:28:45;4.38;;;1.33;;
61756;SDS011;57225;61.460;24.060;2024-03-23T14:31:29;4.32;;;1.50;;
61756;SDS011;57225;61.460;24.060;2024-03-23T14:34:13;6.20;;;1.20;;
61756;SDS011;57225;61.460;24.060;2024-03-23T14:36:58;2.67;;;1.30;;
61756;SDS011;57225;61.460;24.060;2024-03-23T14:39:42;3.28;;;0.90;;
61756;SDS011;57225;61.460;24.060;2024-03-23T14:42:28;2.92;;;1.20;;
61756;SDS011;57225;61.460;24.060;2024-03-23T14:45:13;4.03;;;1.02;;
61756;SDS011;57225;61.460;24.060;2024-03-23T14:47:59;4.93;;;0.85;;
61756;SDS011;57225;61.460;24.060;2024-03-23T14:50:44;3.20;;;1.00;;
61756;SDS011;57225;61.460;24.060;2024-03-23T14:53:32;1.48;;;0.80;;
61756;SDS011;57225;61.460;24.060;2024-03-23T14:56:17;4.28;;;0.82;;
61756;SDS011;57225;61.460;24.060;2024-03-23T14:59:02;2.90;;;0.93;;
61756;SDS011;57225;61.460;24.060;2024-03-23T15:01:47;7.85;;;0.90;;
61756;SDS011;57225;61.460;24.060;2024-03-23T15:04:31;3.83;;;1.08;;
61756;SDS011;57225;61.460;24.060;2024-03-23T15:07:15;4.97;;;1.17;;
61756;SDS011;57225;61.460;24.060;2024-03-23T15:10:00;4.57;;;0.90;;
61756;SDS011;57225;61.460;24.060;2024-03-23T15:12:44;5.68;;;1.45;;
61756;SDS011;57225;61.460;24.060;2024-03-23T15:15:29;2.95;;;1.20;;
61756;SDS011;57225;61.460;24.060;2024-03-23T15:18:13;2.83;;;1.48;;
61756;SDS011;57225;61.460;24.060;2024-03-23T15:20:59;2.00;;;1.10;;
61756;SDS011;57225;61.460;24.060;2024-03-23T15:23:53;3.63;;;1.10;;
61756;SDS011;57225;61.460;24.060;2024-03-23T15:26:38;1.70;;;0.65;;
61756;SDS011;57225;61.460;24.060;2024-03-23T15:29:22;3.10;;;1.00;;
61756;SDS011;57225;61.460;24.060;2024-03-23T15:32:07;4.50;;;0.98;;
61756;SDS011;57225;61.460;24.060;2024-03-23T15:34:51;2.15;;;0.85;;
61756;SDS011;57225;61.460;24.060;2024-03-23T15:37:36;2.85;;;1.20;;
61756;SDS011;57225;61.460;24.060;2024-03-23T15:40:20;1.55;;;0.90;;
61756;SDS011;57225;61.460;24.060;2024-03-23T15:43:06;3.28;;;1.15;;
61756;SDS011;57225;61.460;24.060;2024-03-23T15:45:54;3.40;;;1.00;;
61756;SDS011;57225;61.460;24.060;2024-03-23T15:48:39;3.37;;;0.90;;
61756;SDS011;57225;61.460;24.060;2024-03-23T15:51:24;3.88;;;1.17;;
61756;SDS011;57225;61.460;24.060;2024-03-23T15:54:15;1.65;;;1.00;;
61756;SDS011;57225;61.460;24.060;2024-03-23T15:57:01;2.92;;;0.90;;
61756;SDS011;57225;61.460;24.060;2024-03-23T15:59:45;3.88;;;1.27;;
61756;SDS011;57225;61.460;24.060;2024-03-23T16:02:30;3.63;;;1.02;;
61756;SDS011;57225;61.460;24.060;2024-03-23T16:05:14;9.23;;;0.82;;
61756;SDS011;57225;61.460;24.060;2024-03-23T16:07:59;2.60;;;0.80;;
61756;SDS011;57225;61.460;24.060;2024-03-23T16:10:43;3.35;;;0.77;;
61756;SDS011;57225;61.460;24.060;2024-03-23T16:13:28;2.20;;;0.73;;
61756;SDS011;57225;61.460;24.060;2024-03-23T16:16:12;4.32;;;1.10;;
61756;SDS011;57225;61.460;24.060;2024-03-23T16:18:57;2.72;;;0.90;;
61756;SDS011;57225;61.460;24.060;2024-03-23T16:21:42;3.17;;;0.90;;
61756;SDS011;57225;61.460;24.060;2024-03-23T16:24:26;6.38;;;1.35;;
61756;SDS011;57225;61.460;24.060;2024-03-23T16:27:11;4.18;;;1.10;;
61756;SDS011;57225;61.460;24.060;2024-03-23T16:29:55;2.03;;;0.85;;
61756;SDS011;57225;61.460;24.060;2024-03-23T16:32:40;4.20;;;1.10;;
61756;SDS011;57225;61.460;24.060;2024-03-23T16:35:25;2.25;;;1.30;;
61756;SDS011;57225;61.460;24.060;2024-03-23T16:38:09;4.47;;;1.48;;
61756;SDS011;57225;61.460;24.060;2024-03-23T16:40:57;3.75;;;1.23;;
61756;SDS011;57225;61.460;24.060;2024-03-23T16:43:43;3.45;;;0.95;;
61756;SDS011;57225;61.460;24.060;2024-03-23T16:46:28;2.90;;;1.20;;
61756;SDS011;57225;61.460;24.060;2024-03-23T16:49:12;2.67;;;1.13;;
61756;SDS011;57225;61.460;24.060;2024-03-23T16:51:57;6.57;;;1.80;;
61756;SDS011;57225;61.460;24.060;2024-03-23T16:54:41;5.78;;;1.63;;
61756;SDS011;57225;61.460;24.060;2024-03-23T16:57:26;6.43;;;1.58;;
61756;SDS011;57225;61.460;24.060;2024-03-23T17:00:11;4.07;;;1.55;;
61756;SDS011;57225;61.460;24.060;2024-03-23T17:02:55;6.10;;;2.80;;
61756;SDS011;57225;61.460;24.060;2024-03-23T17:05:40;8.68;;;3.35;;
61756;SDS011;57225;61.460;24.060;2024-03-23T17:08:26;6.07;;;1.92;;
61756;SDS011;57225;61.460;24.060;2024-03-23T17:11:11;5.20;;;1.52;;
61756;SDS011;57225;61.460;24.060;2024-03-23T17:13:55;2.33;;;1.10;;
61756;SDS011;57225;61.460;24.060;2024-03-23T17:16:40;6.25;;;1.20;;
61756;SDS011;57225;61.460;24.060;2024-03-23T17:19:24;4.22;;;1.10;;
61756;SDS011;57225;61.460;24.060;2024-03-23T17:22:11;3.55;;;1.00;;
61756;SDS011;57225;61.460;24.060;2024-03-23T17:24:56;4.03;;;0.93;;
61756;SDS011;57225;61.460;24.060;2024-03-23T17:27:41;3.03;;;1.60;;
61756;SDS011;57225;61.460;24.060;2024-03-23T17:30:25;2.47;;;1.20;;
61756;SDS011;57225;61.460;24.060;2024-03-23T17:33:10;3.85;;;1.30;;
61756;SDS011;57225;61.460;24.060;2024-03-23T17:35:54;2.50;;;1.40;;
61756;SDS011;57225;61.460;24.060;2024-03-23T17:38:39;2.72;;;1.20;;
61756;SDS011;57225;61.460;24.060;2024-03-23T17:41:23;5.68;;;1.08;;
61756;SDS011;57225;61.460;24.060;2024-03-23T17:44:13;3.00;;;0.80;;
61756;SDS011;57225;61.460;24.060;2024-03-23T17:46:57;3.30;;;1.10;;